Time,TemperatureF,DewpointF,PressureIn,WindDirection,WindDirectionDegrees,WindSpeedMPH,WindSpeedGustMPH,Humidity,HourlyPrecipIn,Conditions,Clouds,dailyrainin,SolarRadiationWatts/m^2,SoftwareType,DateUTC
2013-08-12 00:02:00,52.6,37.8,29.85,WNW,299,3.0,3.0,57,0.00,,,0.00,0,WeatherCatV1.21B27,2013-08-12 07:02:00,
2013-08-12 00:07:00,52.6,37.8,29.85,NW,304,4.0,5.0,57,0.00,,,0.00,0,WeatherCatV1.21B27,2013-08-12 07:07:00,
2013-08-12 00:12:00,52.6,37.8,29.85,WNW,288,5.0,6.0,57,0.00,,,0.00,0,WeatherCatV1.21B27,2013-08-12 07:12:00,
2013-08-12 00:17:00,52.8,37.5,29.85,WNW,293,4.0,5.0,56,0.00,,,0.00,0,WeatherCatV1.21B27,2013-08-12 07:17:00,
2013-08-12 00:22:00,52.8,37.5,29.85,WNW,293,5.0,7.0,56,0.00,,,0.00,0,WeatherCatV1.21B27,2013-08-12 07:22:00,
2013-08-12 00:27:00,52.8,37.5,29.85,WNW,293,3.0,4.0,56,0.00,,,0.00,0,WeatherCatV1.21B27,2013-08-12 07:27:00,
2013-08-12 00:32:00,52.8,38.0,29.85,WNW,293,4.0,4.0,57,0.00,,,0.00,0,WeatherCatV1.21B27,2013-08-12 07:32:00,
2013-08-12 00:37:00,52.6,37.8,29.85,NW,311,4.0,7.0,57,0.00,,,0.00,0,WeatherCatV1.21B27,2013-08-12 07:37:00,
2013-08-12 00:42:00,52.5,37.7,29.85,WNW,299,4.0,5.0,57,0.00,,,0.00,0,WeatherCatV1.21B27,2013-08-12 07:42:00,
2013-08-12 00:47:00,52.3,37.5,29.85,WNW,288,5.0,9.0,57,0.00,,,0.00,0,WeatherCatV1.21B27,2013-08-12 07:47:00,
2013-08-12 00:52:00,52.5,35.4,29.85,NW,312,6.0,9.0,52,0.00,,,0.00,0,WeatherCatV1.21B27,2013-08-12 07:52:00,
2013-08-12 00:57:00,52.6,34.0,29.85,West,278,6.0,11.0,49,0.00,,,0.00,0,WeatherCatV1.21B27,2013-08-12 07:57:00,
2013-08-12 01:02:00,52.8,35.7,29.85,NW,320,4.0,10.0,52,0.00,,,0.00,0,WeatherCatV1.21B27,2013-08-12 08:02:00,
2013-08-12 01:07:00,52.8,35.7,29.85,NW,317,7.0,12.0,52,0.00,,,0.00,0,WeatherCatV1.21B27,2013-08-12 08:07:00,
2013-08-12 01:12:00,52.9,33.8,29.85,North,352,3.0,9.0,48,0.00,,,0.00,0,WeatherCatV1.21B27,2013-08-12 08:12:00,
2013-08-12 01:17:00,53.3,33.6,29.83,NW,316,10.0,14.0,47,0.00,,,0.00,0,WeatherCatV1.21B27,2013-08-12 08:17:00,
2013-08-12 01:22:00,53.3,34.1,29.83,WNW,303,9.0,9.0,48,0.00,,,0.00,0,WeatherCatV1.21B27,2013-08-12 08:22:00,
2013-08-12 01:27:00,53.3,33.6,29.83,NW,310,11.0,11.0,47,0.00,,,0.00,0,WeatherCatV1.21B27,2013-08-12 08:27:00,
2013-08-12 01:32:00,53.5,33.8,29.83,WNW,288,11.0,13.0,47,0.00,,,0.00,0,WeatherCatV1.21B27,2013-08-12 08:32:00,
2013-08-12 01:37:00,53.5,33.8,29.83,WNW,297,8.0,11.0,47,0.00,,,0.00,0,WeatherCatV1.21B27,2013-08-12 08:37:00,
2013-08-12 01:42:00,53.6,33.3,29.83,WNW,288,6.0,7.0,46,0.00,,,0.00,0,WeatherCatV1.21B27,2013-08-12 08:42:00,
2013-08-12 01:47:00,53.6,33.3,29.83,NW,307,7.0,10.0,46,0.00,,,0.00,0,WeatherCatV1.21B27,2013-08-12 08:47:00,
2013-08-12 01:52:00,53.9,33.0,29.83,WNW,283,11.0,16.0,45,0.00,,,0.00,0,WeatherCatV1.21B27,2013-08-12 08:52:00,
2013-08-12 01:57:00,54.2,32.8,29.83,WNW,301,10.0,11.0,44,0.00,,,0.00,0,WeatherCatV1.21B27,2013-08-12 08:57:00,
2013-08-12 02:02:00,54.4,33.0,29.83,WNW,288,3.0,12.0,44,0.00,,,0.00,0,WeatherCatV1.21B27,2013-08-12 09:02:00,
2013-08-12 02:07:00,54.2,32.8,29.83,NW,314,8.0,13.0,44,0.00,,,0.00,0,WeatherCatV1.21B27,2013-08-12 09:07:00,
2013-08-12 02:12:00,54.2,32.8,29.83,NNW,343,2.0,14.0,44,0.00,,,0.00,0,WeatherCatV1.21B27,2013-08-12 09:12:00,
2013-08-12 02:17:00,54.2,32.8,29.82,NW,310,9.0,11.0,44,0.00,,,0.00,0,WeatherCatV1.21B27,2013-08-12 09:17:00,
2013-08-12 02:22:00,54.2,32.8,29.82,NW,307,13.0,13.0,44,0.00,,,0.00,0,WeatherCatV1.21B27,2013-08-12 09:22:00,
2013-08-12 02:27:00,54.2,32.8,29.82,WNW,299,5.0,10.0,44,0.00,,,0.00,0,WeatherCatV1.21B27,2013-08-12 09:27:00,
2013-08-12 02:32:00,54.2,32.8,29.82,NW,311,9.0,13.0,44,0.00,,,0.00,0,WeatherCatV1.21B27,2013-08-12 09:32:00,
2013-08-12 02:37:00,54.1,32.7,29.82,WNW,301,1.0,12.0,44,0.00,,,0.00,0,WeatherCatV1.21B27,2013-08-12 09:37:00,
2013-08-12 02:42:00,54.1,32.7,29.82,West,276,3.0,9.0,44,0.00,,,0.00,0,WeatherCatV1.21B27,2013-08-12 09:42:00,
2013-08-12 02:47:00,53.9,32.5,29.83,NW,306,4.0,7.0,44,0.00,,,0.00,0,WeatherCatV1.21B27,2013-08-12 09:47:00,
2013-08-12 02:52:00,53.9,33.0,29.83,WNW,293,3.0,4.0,45,0.00,,,0.00,0,WeatherCatV1.21B27,2013-08-12 09:52:00,
2013-08-12 02:57:00,53.6,32.8,29.83,SW,216,0.0,3.0,45,0.00,,,0.00,0,WeatherCatV1.21B27,2013-08-12 09:57:00,
2013-08-12 03:02:00,53.5,32.7,29.82,SW,216,0.0,0.0,45,0.00,,,0.00,0,WeatherCatV1.21B27,2013-08-12 10:02:00,
2013-08-12 03:07:00,53.5,32.7,29.82,NW,312,5.0,5.0,45,0.00,,,0.00,0,WeatherCatV1.21B27,2013-08-12 10:07:00,
2013-08-12 03:12:00,53.3,32.5,29.82,NW,307,5.0,10.0,45,0.00,,,0.00,0,WeatherCatV1.21B27,2013-08-12 10:12:00,
2013-08-12 03:17:00,53.2,32.4,29.82,WNW,293,4.0,6.0,45,0.00,,,0.00,0,WeatherCatV1.21B27,2013-08-12 10:17:00,
2013-08-12 03:22:00,53.2,32.4,29.82,WNW,293,7.0,7.0,45,0.00,,,0.00,0,WeatherCatV1.21B27,2013-08-12 10:22:00,
2013-08-12 03:27:00,53.3,32.5,29.82,NW,306,5.0,6.0,45,0.00,,,0.00,0,WeatherCatV1.21B27,2013-08-12 10:27:00,
2013-08-12 03:32:00,53.5,32.7,29.82,WNW,293,0.0,0.0,45,0.00,,,0.00,0,WeatherCatV1.21B27,2013-08-12 10:32:00,
2013-08-12 03:37:00,53.8,31.2,29.82,NNW,342,3.0,5.0,42,0.00,,,0.00,0,WeatherCatV1.21B27,2013-08-12 10:37:00,
2013-08-12 03:42:00,53.9,30.8,29.82,NNW,342,0.0,3.0,41,0.00,,,0.00,0,WeatherCatV1.21B27,2013-08-12 10:42:00,
2013-08-12 03:47:00,53.8,30.7,29.82,NNW,334,4.0,4.0,41,0.00,,,0.00,0,WeatherCatV1.21B27,2013-08-12 10:47:00,
2013-08-12 03:52:00,53.6,30.5,29.82,NNW,330,1.0,4.0,41,0.00,,,0.00,0,WeatherCatV1.21B27,2013-08-12 10:52:00,
2013-08-12 03:57:00,53.6,30.5,29.82,NNW,331,0.0,4.0,41,0.00,,,0.00,0,WeatherCatV1.21B27,2013-08-12 10:57:00,
2013-08-12 04:02:00,53.6,30.5,29.82,NNW,331,3.0,4.0,41,0.00,,,0.00,0,WeatherCatV1.21B27,2013-08-12 11:02:00,
2013-08-12 04:07:00,53.6,31.1,29.82,WNW,299,3.0,5.0,42,0.00,,,0.00,0,WeatherCatV1.21B27,2013-08-12 11:07:00,
2013-08-12 04:12:00,53.5,31.6,29.82,WNW,288,0.0,3.0,43,0.00,,,0.00,0,WeatherCatV1.21B27,2013-08-12 11:12:00,
2013-08-12 04:17:00,53.3,32.0,29.82,WNW,288,0.0,5.0,44,0.00,,,0.00,0,WeatherCatV1.21B27,2013-08-12 11:17:00,
2013-08-12 04:23:00,52.9,32.1,29.82,WNW,288,2.0,4.0,45,0.00,,,0.00,0,WeatherCatV1.21B27,2013-08-12 11:23:00,
2013-08-12 04:28:00,52.6,31.9,29.82,WNW,288,0.0,0.0,45,0.00,,,0.00,0,WeatherCatV1.21B27,2013-08-12 11:28:00,
2013-08-12 04:33:00,52.3,32.1,29.82,WNW,288,0.0,4.0,46,0.00,,,0.00,0,WeatherCatV1.21B27,2013-08-12 11:33:00,
2013-08-12 04:38:00,52.2,32.0,29.82,WNW,288,0.0,0.0,46,0.00,,,0.00,0,WeatherCatV1.21B27,2013-08-12 11:38:00,
2013-08-12 04:43:00,51.9,31.8,29.82,WNW,288,0.0,0.0,46,0.00,,,0.00,0,WeatherCatV1.21B27,2013-08-12 11:43:00,
2013-08-12 04:48:00,51.7,30.5,29.83,WNW,288,2.0,3.0,44,0.00,,,0.00,0,WeatherCatV1.21B27,2013-08-12 11:48:00,
2013-08-12 04:53:00,51.9,29.0,29.83,WNW,293,2.0,2.0,41,0.00,,,0.00,0,WeatherCatV1.21B27,2013-08-12 11:53:00,
2013-08-12 04:58:00,51.9,29.0,29.83,WNW,293,2.0,3.0,41,0.00,,,0.00,0,WeatherCatV1.21B27,2013-08-12 11:58:00,
2013-08-12 05:03:00,51.9,31.2,29.83,WNW,297,3.0,3.0,45,0.00,,,0.00,0,WeatherCatV1.21B27,2013-08-12 12:03:00,
2013-08-12 05:08:00,51.7,29.4,29.83,WNW,283,0.0,1.0,42,0.00,,,0.00,0,WeatherCatV1.21B27,2013-08-12 12:08:00,
2013-08-12 05:13:00,51.7,28.8,29.83,WNW,283,0.0,0.0,41,0.00,,,0.00,0,WeatherCatV1.21B27,2013-08-12 12:13:00,
2013-08-12 05:18:00,51.7,28.2,29.85,WNW,283,0.0,0.0,40,0.00,,,0.00,0,WeatherCatV1.21B27,2013-08-12 12:18:00,
2013-08-12 05:23:00,51.6,27.5,29.85,WNW,283,0.0,0.0,39,0.00,,,0.00,0,WeatherCatV1.21B27,2013-08-12 12:23:00,
2013-08-12 05:28:00,51.6,27.5,29.85,WNW,283,0.0,2.0,39,0.00,,,0.00,0,WeatherCatV1.21B27,2013-08-12 12:28:00,
2013-08-12 05:33:00,51.7,28.2,29.85,WNW,283,0.0,0.0,40,0.00,,,0.00,0,WeatherCatV1.21B27,2013-08-12 12:33:00,
2013-08-12 05:38:00,51.7,27.5,29.85,WNW,283,0.0,0.0,39,0.00,,,0.00,0,WeatherCatV1.21B27,2013-08-12 12:38:00,
2013-08-12 05:43:00,51.7,29.4,29.85,WNW,283,0.0,0.0,42,0.00,,,0.00,0,WeatherCatV1.21B27,2013-08-12 12:43:00,
2013-08-12 05:48:00,51.7,29.4,29.85,WNW,283,0.0,0.0,42,0.00,,,0.00,0,WeatherCatV1.21B27,2013-08-12 12:48:00,
2013-08-12 05:53:00,51.6,28.7,29.85,WNW,283,0.0,0.0,41,0.00,,,0.00,0,WeatherCatV1.21B27,2013-08-12 12:53:00,
2013-08-12 05:58:00,51.6,28.1,29.85,WNW,283,0.0,0.0,40,0.00,,,0.00,0,WeatherCatV1.21B27,2013-08-12 12:58:00,
2013-08-12 06:03:00,51.4,27.9,29.86,WNW,283,0.0,0.0,40,0.00,,,0.00,0,WeatherCatV1.21B27,2013-08-12 13:03:00,
2013-08-12 06:08:00,51.4,28.5,29.86,WNW,283,0.0,0.0,41,0.00,,,0.00,0,WeatherCatV1.21B27,2013-08-12 13:08:00,
2013-08-12 06:13:00,51.3,27.2,29.86,WNW,283,0.0,0.0,39,0.00,,,0.00,5,WeatherCatV1.21B27,2013-08-12 13:13:00,
2013-08-12 06:18:00,51.3,25.9,29.89,WNW,283,2.0,3.0,37,0.00,,,0.00,7,WeatherCatV1.21B27,2013-08-12 13:18:00,
2013-08-12 06:23:00,51.3,26.6,29.89,WNW,283,0.0,0.0,38,0.00,,,0.00,9,WeatherCatV1.21B27,2013-08-12 13:23:00,
2013-08-12 06:28:00,51.4,27.3,29.89,WNW,283,2.0,3.0,39,0.00,,,0.00,12,WeatherCatV1.21B27,2013-08-12 13:28:00,
2013-08-12 06:33:00,51.6,27.5,29.89,WNW,283,2.0,2.0,39,0.00,,,0.00,16,WeatherCatV1.21B27,2013-08-12 13:33:00,
2013-08-12 06:38:00,51.9,28.4,29.89,WNW,283,2.0,2.0,40,0.00,,,0.00,23,WeatherCatV1.21B27,2013-08-12 13:38:00,
2013-08-12 06:43:00,52.2,28.6,29.89,WNW,283,0.0,0.0,40,0.00,,,0.00,30,WeatherCatV1.21B27,2013-08-12 13:43:00,
2013-08-12 06:48:00,52.5,29.5,29.88,WNW,283,0.0,1.0,41,0.00,,,0.00,40,WeatherCatV1.21B27,2013-08-12 13:48:00,
2013-08-12 06:53:00,52.8,30.4,29.88,WNW,283,0.0,3.0,42,0.00,,,0.00,49,WeatherCatV1.21B27,2013-08-12 13:53:00,
2013-08-12 06:58:00,52.9,29.9,29.88,WNW,283,0.0,3.0,41,0.00,,,0.00,63,WeatherCatV1.21B27,2013-08-12 13:58:00,
2013-08-12 07:03:00,53.1,30.0,29.88,WNW,283,0.0,0.0,41,0.00,,,0.00,77,WeatherCatV1.21B27,2013-08-12 14:03:00,
2013-08-12 07:08:00,53.2,30.1,29.88,WNW,283,1.0,2.0,41,0.00,,,0.00,91,WeatherCatV1.21B27,2013-08-12 14:08:00,
2013-08-12 07:13:00,53.2,29.5,29.88,WNW,283,0.0,2.0,40,0.00,,,0.00,105,WeatherCatV1.21B27,2013-08-12 14:13:00,
2013-08-12 07:18:00,53.3,28.4,29.90,WNW,283,0.0,2.0,38,0.00,,,0.00,121,WeatherCatV1.21B27,2013-08-12 14:18:00,
2013-08-12 07:23:00,53.3,29.0,29.90,WNW,283,1.0,1.0,39,0.00,,,0.00,135,WeatherCatV1.21B27,2013-08-12 14:23:00,
2013-08-12 07:28:00,53.5,28.5,29.90,WNW,283,0.0,0.0,38,0.00,,,0.00,148,WeatherCatV1.21B27,2013-08-12 14:28:00,
2013-08-12 07:33:00,53.6,29.9,29.91,WNW,283,0.0,0.0,40,0.00,,,0.00,163,WeatherCatV1.21B27,2013-08-12 14:33:00,
2013-08-12 07:38:00,53.8,31.2,29.91,WNW,283,0.0,0.0,42,0.00,,,0.00,179,WeatherCatV1.21B27,2013-08-12 14:38:00,
2013-08-12 07:43:00,54.1,32.1,29.91,WNW,283,0.0,0.0,43,0.00,,,0.00,193,WeatherCatV1.21B27,2013-08-12 14:43:00,
2013-08-12 07:48:00,54.2,32.2,29.91,WNW,283,0.0,0.0,43,0.00,,,0.00,211,WeatherCatV1.21B27,2013-08-12 14:48:00,
2013-08-12 07:53:00,54.4,31.2,29.91,WNW,283,0.0,0.0,41,0.00,,,0.00,227,WeatherCatV1.21B27,2013-08-12 14:53:00,
2013-08-12 07:58:00,54.7,30.9,29.91,WNW,283,0.0,0.0,40,0.00,,,0.00,243,WeatherCatV1.21B27,2013-08-12 14:58:00,
2013-08-12 08:03:00,55.0,31.7,29.89,WNW,283,2.0,2.0,41,0.00,,,0.00,257,WeatherCatV1.21B27,2013-08-12 15:03:00,
2013-08-12 08:08:00,55.1,30.0,29.89,WNW,283,0.0,0.0,38,0.00,,,0.00,274,WeatherCatV1.21B27,2013-08-12 15:08:00,
2013-08-12 08:13:00,55.4,29.6,29.89,WNW,283,0.0,0.0,37,0.00,,,0.00,290,WeatherCatV1.21B27,2013-08-12 15:13:00,
2013-08-12 08:18:00,55.7,27.0,29.92,WNW,283,1.0,3.0,33,0.00,,,0.00,306,WeatherCatV1.21B27,2013-08-12 15:18:00,
2013-08-12 08:23:00,56.0,26.6,29.92,WNW,283,0.0,3.0,32,0.00,,,0.00,322,WeatherCatV1.21B27,2013-08-12 15:23:00,
2013-08-12 08:28:00,56.3,26.1,29.92,WNW,283,2.0,4.0,31,0.00,,,0.00,339,WeatherCatV1.21B27,2013-08-12 15:28:00,
2013-08-12 08:33:00,56.6,24.7,29.92,WNW,283,0.0,3.0,29,0.00,,,0.00,357,WeatherCatV1.21B27,2013-08-12 15:33:00,
2013-08-12 08:38:00,56.9,26.6,29.92,WNW,283,0.0,3.0,31,0.00,,,0.00,369,WeatherCatV1.21B27,2013-08-12 15:38:00,
2013-08-12 08:43:00,57.2,26.0,29.92,WNW,283,1.0,1.0,30,0.00,,,0.00,387,WeatherCatV1.21B27,2013-08-12 15:43:00,
2013-08-12 08:48:00,57.5,28.6,29.93,WNW,283,0.0,5.0,33,0.00,,,0.00,403,WeatherCatV1.21B27,2013-08-12 15:48:00,
2013-08-12 08:53:00,57.6,27.2,29.93,NW,304,2.0,4.0,31,0.00,,,0.00,420,WeatherCatV1.21B27,2013-08-12 15:53:00,
2013-08-12 08:58:00,57.8,29.6,29.93,WNW,297,6.0,6.0,34,0.00,,,0.00,436,WeatherCatV1.21B27,2013-08-12 15:58:00,
2013-08-12 09:03:00,58.0,30.5,29.91,WNW,301,2.0,4.0,35,0.00,,,0.00,452,WeatherCatV1.21B27,2013-08-12 16:03:00,
2013-08-12 09:08:00,58.1,24.3,29.91,NW,305,4.0,6.0,27,0.00,,,0.00,469,WeatherCatV1.21B27,2013-08-12 16:08:00,
2013-08-12 09:13:00,58.4,24.6,29.91,WNW,293,4.0,5.0,27,0.00,,,0.00,483,WeatherCatV1.21B27,2013-08-12 16:13:00,
2013-08-12 09:18:00,58.6,20.9,29.93,WNW,293,3.0,5.0,23,0.00,,,0.00,499,WeatherCatV1.21B27,2013-08-12 16:18:00,
2013-08-12 09:23:00,58.9,25.9,29.93,WNW,288,2.0,5.0,28,0.00,,,0.00,515,WeatherCatV1.21B27,2013-08-12 16:23:00,
2013-08-12 09:28:00,59.3,22.5,29.93,WNW,300,5.0,6.0,24,0.00,,,0.00,529,WeatherCatV1.21B27,2013-08-12 16:28:00,
2013-08-12 09:33:00,59.6,24.7,29.92,NW,310,0.0,4.0,26,0.00,,,0.00,548,WeatherCatV1.21B27,2013-08-12 16:33:00,
2013-08-12 09:38:00,59.9,24.9,29.92,NW,310,2.0,4.0,26,0.00,,,0.00,564,WeatherCatV1.21B27,2013-08-12 16:38:00,
2013-08-12 09:43:00,60.2,23.3,29.92,WNW,301,2.0,4.0,24,0.00,,,0.00,580,WeatherCatV1.21B27,2013-08-12 16:43:00,
2013-08-12 09:48:00,60.7,23.7,29.92,WNW,293,0.0,5.0,24,0.00,,,0.00,585,WeatherCatV1.21B27,2013-08-12 16:48:00,
2013-08-12 09:53:00,61.0,25.9,29.92,West,278,2.0,4.0,26,0.00,,,0.00,612,WeatherCatV1.21B27,2013-08-12 16:53:00,
2013-08-12 09:58:00,61.2,26.0,29.92,NW,320,2.0,5.0,26,0.00,,,0.00,621,WeatherCatV1.21B27,2013-08-12 16:58:00,
2013-08-12 10:03:00,61.3,27.9,29.90,NW,308,0.0,7.0,28,0.00,,,0.00,631,WeatherCatV1.21B27,2013-08-12 17:03:00,
2013-08-12 10:08:00,61.5,29.8,29.90,WNW,293,6.0,7.0,30,0.00,,,0.00,649,WeatherCatV1.21B27,2013-08-12 17:08:00,
2013-08-12 10:13:00,61.6,23.5,29.90,WNW,293,5.0,9.0,23,0.00,,,0.00,661,WeatherCatV1.21B27,2013-08-12 17:13:00,
2013-08-12 10:18:00,61.8,25.6,29.93,NW,307,6.0,8.0,25,0.00,,,0.00,671,WeatherCatV1.21B27,2013-08-12 17:18:00,
2013-08-12 10:23:00,62.0,23.8,29.93,WNW,283,0.0,6.0,23,0.00,,,0.00,687,WeatherCatV1.21B27,2013-08-12 17:23:00,
2013-08-12 10:28:00,62.1,23.9,29.93,WNW,293,0.0,6.0,23,0.00,,,0.00,701,WeatherCatV1.21B27,2013-08-12 17:28:00,
2013-08-12 10:33:00,62.4,20.8,29.93,NW,322,3.0,3.0,20,0.00,,,0.00,714,WeatherCatV1.21B27,2013-08-12 17:33:00,
2013-08-12 10:38:00,62.7,22.2,29.93,NW,306,5.0,5.0,21,0.00,,,0.00,724,WeatherCatV1.21B27,2013-08-12 17:38:00,
2013-08-12 10:43:00,63.2,23.7,29.93,WNW,303,0.0,3.0,22,0.00,,,0.00,740,WeatherCatV1.21B27,2013-08-12 17:43:00,
2013-08-12 10:48:00,63.7,20.7,29.92,WNW,303,0.0,6.0,19,0.00,,,0.00,751,WeatherCatV1.21B27,2013-08-12 17:48:00,
2013-08-12 10:53:00,64.0,25.5,29.92,NW,320,6.0,7.0,23,0.00,,,0.00,758,WeatherCatV1.21B27,2013-08-12 17:53:00,
2013-08-12 10:58:00,64.2,25.6,29.92,NW,317,4.0,5.0,23,0.00,,,0.00,766,WeatherCatV1.21B27,2013-08-12 17:58:00,
2013-08-12 11:03:00,64.2,23.5,29.92,West,265,2.0,7.0,21,0.00,,,0.00,779,WeatherCatV1.21B27,2013-08-12 18:03:00,
2013-08-12 11:08:00,64.0,24.4,29.92,WNW,302,6.0,7.0,22,0.00,,,0.00,786,WeatherCatV1.21B27,2013-08-12 18:08:00,
2013-08-12 11:13:00,64.2,23.5,29.92,WNW,293,5.0,7.0,21,0.00,,,0.00,798,WeatherCatV1.21B27,2013-08-12 18:13:00,
2013-08-12 11:18:00,64.3,22.4,29.92,WNW,283,5.0,6.0,20,0.00,,,0.00,809,WeatherCatV1.21B27,2013-08-12 18:18:00,
2013-08-12 11:23:00,64.5,23.7,29.92,WNW,297,3.0,6.0,21,0.00,,,0.00,819,WeatherCatV1.21B27,2013-08-12 18:23:00,
2013-08-12 11:29:00,64.7,23.9,29.92,West,266,6.0,8.0,21,0.00,,,0.00,823,WeatherCatV1.21B27,2013-08-12 18:29:00,
2013-08-12 11:34:00,65.0,24.1,29.90,WSW,241,9.0,12.0,21,0.00,,,0.00,835,WeatherCatV1.21B27,2013-08-12 18:34:00,
2013-08-12 11:39:00,65.0,25.2,29.90,NW,307,7.0,10.0,22,0.00,,,0.00,842,WeatherCatV1.21B27,2013-08-12 18:39:00,
2013-08-12 11:44:00,65.0,26.3,29.90,NW,318,9.0,10.0,23,0.00,,,0.00,849,WeatherCatV1.21B27,2013-08-12 18:44:00,
2013-08-12 11:49:00,65.0,29.3,29.90,WNW,293,6.0,10.0,26,0.00,,,0.00,860,WeatherCatV1.21B27,2013-08-12 18:49:00,
2013-08-12 11:54:00,65.0,28.3,29.90,West,269,7.0,13.0,25,0.00,,,0.00,863,WeatherCatV1.21B27,2013-08-12 18:54:00,
2013-08-12 11:59:00,65.0,28.3,29.89,West,273,4.0,10.0,25,0.00,,,0.00,870,WeatherCatV1.21B27,2013-08-12 18:59:00,
2013-08-12 12:04:00,65.3,28.6,29.89,West,274,4.0,8.0,25,0.00,,,0.00,877,WeatherCatV1.21B27,2013-08-12 19:04:00,
2013-08-12 12:09:00,65.5,27.8,29.89,WNW,302,11.0,13.0,24,0.00,,,0.00,877,WeatherCatV1.21B27,2013-08-12 19:09:00,
2013-08-12 12:14:00,65.6,27.8,29.89,WNW,298,7.0,12.0,24,0.00,,,0.00,886,WeatherCatV1.21B27,2013-08-12 19:14:00,
2013-08-12 12:19:00,65.8,28.0,29.89,WNW,288,7.0,12.0,24,0.00,,,0.00,889,WeatherCatV1.21B27,2013-08-12 19:19:00,
2013-08-12 12:24:00,65.8,29.0,29.89,West,274,12.0,12.0,25,0.00,,,0.00,893,WeatherCatV1.21B27,2013-08-12 19:24:00,
2013-08-12 12:29:00,66.1,29.2,29.88,West,272,5.0,13.0,25,0.00,,,0.00,605,WeatherCatV1.21B27,2013-08-12 19:29:00,
2013-08-12 12:34:00,66.3,28.4,29.88,WNW,283,6.0,13.0,24,0.00,,,0.00,900,WeatherCatV1.21B27,2013-08-12 19:34:00,
2013-08-12 12:39:00,66.3,30.4,29.88,West,264,5.0,11.0,26,0.00,,,0.00,905,WeatherCatV1.21B27,2013-08-12 19:39:00,
2013-08-12 12:44:00,66.3,29.4,29.88,NW,311,10.0,13.0,25,0.00,,,0.00,909,WeatherCatV1.21B27,2013-08-12 19:44:00,
2013-08-12 12:49:00,66.1,29.2,29.88,NW,307,4.0,10.0,25,0.00,,,0.00,911,WeatherCatV1.21B27,2013-08-12 19:49:00,
2013-08-12 12:54:00,67.6,31.5,29.88,SW,215,5.0,5.0,26,0.00,,,0.00,923,WeatherCatV1.21B27,2013-08-12 19:54:00,
2013-08-12 12:59:00,68.1,28.9,29.87,NW,315,9.0,14.0,23,0.00,,,0.00,918,WeatherCatV1.21B27,2013-08-12 19:59:00,
2013-08-12 13:04:00,68.1,29.9,29.87,WNW,283,9.0,11.0,24,0.00,,,0.00,921,WeatherCatV1.21B27,2013-08-12 20:04:00,
2013-08-12 13:09:00,67.8,29.7,29.87,SW,230,5.0,10.0,24,0.00,,,0.00,918,WeatherCatV1.21B27,2013-08-12 20:09:00,
2013-08-12 13:14:00,67.4,29.4,29.87,NW,312,5.0,15.0,24,0.00,,,0.00,912,WeatherCatV1.21B27,2013-08-12 20:14:00,
2013-08-12 13:19:00,67.8,31.7,29.87,NW,306,6.0,10.0,26,0.00,,,0.00,918,WeatherCatV1.21B27,2013-08-12 20:19:00,
2013-08-12 13:24:00,67.9,30.8,29.87,WSW,243,6.0,11.0,25,0.00,,,0.00,921,WeatherCatV1.21B27,2013-08-12 20:24:00,
2013-08-12 13:29:00,67.8,29.7,29.85,West,260,5.0,10.0,24,0.00,,,0.00,912,WeatherCatV1.21B27,2013-08-12 20:29:00,
2013-08-12 13:34:00,67.6,28.5,29.85,NW,318,4.0,15.0,23,0.00,,,0.00,918,WeatherCatV1.21B27,2013-08-12 20:34:00,
2013-08-12 13:39:00,67.8,29.7,29.85,WSW,243,6.0,12.0,24,0.00,,,0.00,914,WeatherCatV1.21B27,2013-08-12 20:39:00,
2013-08-12 13:44:00,67.9,28.7,29.85,West,268,7.0,14.0,23,0.00,,,0.00,916,WeatherCatV1.21B27,2013-08-12 20:44:00,
2013-08-12 13:49:00,67.6,28.5,29.85,West,276,6.0,16.0,23,0.00,,,0.00,912,WeatherCatV1.21B27,2013-08-12 20:49:00,
2013-08-12 13:54:00,67.1,28.1,29.85,NW,312,17.0,19.0,23,0.00,,,0.00,909,WeatherCatV1.21B27,2013-08-12 20:54:00,
2013-08-12 13:59:00,67.1,31.1,29.86,NW,325,10.0,10.0,26,0.00,,,0.00,916,WeatherCatV1.21B27,2013-08-12 20:59:00,
2013-08-12 14:04:00,67.6,29.5,29.86,West,272,4.0,11.0,24,0.00,,,0.00,900,WeatherCatV1.21B27,2013-08-12 21:04:00,
2013-08-12 14:09:00,68.3,28.0,29.86,WNW,293,5.0,15.0,22,0.00,,,0.00,893,WeatherCatV1.21B27,2013-08-12 21:09:00,
2013-08-12 14:14:00,68.4,29.1,29.85,WSW,239,4.0,13.0,23,0.00,,,0.00,888,WeatherCatV1.21B27,2013-08-12 21:14:00,
2013-08-12 14:19:00,68.9,30.6,29.85,WNW,283,5.0,14.0,24,0.00,,,0.00,882,WeatherCatV1.21B27,2013-08-12 21:19:00,
2013-08-12 14:24:00,69.3,29.9,29.85,West,270,14.0,17.0,23,0.00,,,0.00,879,WeatherCatV1.21B27,2013-08-12 21:24:00,
2013-08-12 14:29:00,68.8,29.5,29.84,North,355,4.0,13.0,23,0.00,,,0.00,872,WeatherCatV1.21B27,2013-08-12 21:29:00,
2013-08-12 14:34:00,68.6,30.4,29.84,WNW,302,10.0,13.0,24,0.00,,,0.00,865,WeatherCatV1.21B27,2013-08-12 21:34:00,
2013-08-12 14:39:00,68.8,30.5,29.84,WNW,293,10.0,15.0,24,0.00,,,0.00,647,WeatherCatV1.21B27,2013-08-12 21:39:00,
2013-08-12 14:44:00,68.8,30.5,29.84,NW,320,19.0,24.0,24,0.00,,,0.00,564,WeatherCatV1.21B27,2013-08-12 21:44:00,
2013-08-12 14:49:00,67.9,30.8,29.84,WNW,283,8.0,15.0,25,0.00,,,0.00,860,WeatherCatV1.21B27,2013-08-12 21:49:00,
2013-08-12 14:55:00,67.9,31.8,29.84,WNW,293,11.0,27.0,26,0.00,,,0.00,840,WeatherCatV1.21B27,2013-08-12 21:55:00,
2013-08-12 15:01:00,68.1,31.9,29.83,WNW,298,16.0,22.0,26,0.00,,,0.00,824,WeatherCatV1.21B27,2013-08-12 22:01:00,
2013-08-12 15:06:00,67.6,31.5,29.83,North,354,11.0,24.0,26,0.00,,,0.00,816,WeatherCatV1.21B27,2013-08-12 22:06:00,
2013-08-12 15:11:00,67.6,32.4,29.83,WNW,300,6.0,17.0,27,0.00,,,0.00,802,WeatherCatV1.21B27,2013-08-12 22:11:00,
2013-08-12 15:16:00,67.9,32.7,29.83,NNW,345,11.0,15.0,27,0.00,,,0.00,800,WeatherCatV1.21B27,2013-08-12 22:16:00,
2013-08-12 15:21:00,67.9,32.7,29.83,WNW,293,9.0,23.0,27,0.00,,,0.00,795,WeatherCatV1.21B27,2013-08-12 22:21:00,
2013-08-12 15:26:00,68.4,33.1,29.83,NW,323,14.0,15.0,27,0.00,,,0.00,780,WeatherCatV1.21B27,2013-08-12 22:26:00,
2013-08-12 15:31:00,68.3,33.0,29.83,West,274,17.0,26.0,27,0.00,,,0.00,770,WeatherCatV1.21B27,2013-08-12 22:31:00,
2013-08-12 15:36:00,68.3,33.9,29.83,WNW,288,15.0,18.0,28,0.00,,,0.00,758,WeatherCatV1.21B27,2013-08-12 22:36:00,
2013-08-12 15:41:00,68.4,34.0,29.83,West,261,10.0,19.0,28,0.00,,,0.00,740,WeatherCatV1.21B27,2013-08-12 22:41:00,
2013-08-12 15:46:00,68.1,32.8,29.83,WNW,288,15.0,22.0,27,0.00,,,0.00,731,WeatherCatV1.21B27,2013-08-12 22:46:00,
2013-08-12 15:51:00,68.1,32.8,29.83,SW,229,5.0,10.0,27,0.00,,,0.00,724,WeatherCatV1.21B27,2013-08-12 22:51:00,
2013-08-12 15:56:00,68.6,33.3,29.83,West,274,5.0,17.0,27,0.00,,,0.00,707,WeatherCatV1.21B27,2013-08-12 22:56:00,
2013-08-12 16:01:00,68.8,34.4,29.83,WNW,293,15.0,23.0,28,0.00,,,0.00,694,WeatherCatV1.21B27,2013-08-12 23:01:00,
2013-08-12 16:06:00,68.4,34.0,29.83,West,268,12.0,21.0,28,0.00,,,0.00,680,WeatherCatV1.21B27,2013-08-12 23:06:00,
2013-08-12 16:11:00,67.9,33.6,29.83,WNW,283,17.0,23.0,28,0.00,,,0.00,673,WeatherCatV1.21B27,2013-08-12 23:11:00,
2013-08-12 16:16:00,67.9,33.6,29.85,West,274,12.0,17.0,28,0.00,,,0.00,661,WeatherCatV1.21B27,2013-08-12 23:16:00,
2013-08-12 16:21:00,68.1,32.8,29.85,WSW,240,9.0,23.0,27,0.00,,,0.00,649,WeatherCatV1.21B27,2013-08-12 23:21:00,
2013-08-12 16:26:00,68.3,33.0,29.85,NW,316,14.0,14.0,27,0.00,,,0.00,635,WeatherCatV1.21B27,2013-08-12 23:26:00,
2013-08-12 16:31:00,68.6,32.3,29.84,WNW,283,12.0,21.0,26,0.00,,,0.00,624,WeatherCatV1.21B27,2013-08-12 23:31:00,
2013-08-12 16:36:00,68.3,33.0,29.84,WNW,288,18.0,23.0,27,0.00,,,0.00,610,WeatherCatV1.21B27,2013-08-12 23:36:00,
2013-08-12 16:41:00,68.1,32.8,29.84,WSW,248,9.0,23.0,27,0.00,,,0.00,596,WeatherCatV1.21B27,2013-08-12 23:41:00,
2013-08-12 16:46:00,68.1,32.8,29.84,NW,311,14.0,25.0,27,0.00,,,0.00,584,WeatherCatV1.21B27,2013-08-12 23:46:00,
2013-08-12 16:51:00,68.3,32.1,29.84,WSW,247,12.0,18.0,26,0.00,,,0.00,568,WeatherCatV1.21B27,2013-08-12 23:51:00,
2013-08-12 16:56:00,67.9,33.6,29.84,WNW,283,13.0,31.0,28,0.00,,,0.00,557,WeatherCatV1.21B27,2013-08-12 23:56:00,
2013-08-12 17:01:00,67.8,32.6,29.84,WNW,283,10.0,22.0,27,0.00,,,0.00,541,WeatherCatV1.21B27,2013-08-13 00:01:00,
2013-08-12 17:06:00,67.9,33.6,29.84,West,268,8.0,15.0,28,0.00,,,0.00,527,WeatherCatV1.21B27,2013-08-13 00:06:00,
2013-08-12 17:11:00,67.9,32.7,29.84,WNW,293,13.0,23.0,27,0.00,,,0.00,513,WeatherCatV1.21B27,2013-08-13 00:11:00,
2013-08-12 17:16:00,67.8,32.6,29.84,West,267,13.0,24.0,27,0.00,,,0.00,496,WeatherCatV1.21B27,2013-08-13 00:16:00,
2013-08-12 17:21:00,67.8,33.5,29.84,West,276,15.0,24.0,28,0.00,,,0.00,478,WeatherCatV1.21B27,2013-08-13 00:21:00,
2013-08-12 17:26:00,67.4,33.2,29.84,WNW,301,15.0,28.0,28,0.00,,,0.00,466,WeatherCatV1.21B27,2013-08-13 00:26:00,
2013-08-12 17:31:00,67.1,32.9,29.85,WNW,283,7.0,20.0,28,0.00,,,0.00,448,WeatherCatV1.21B27,2013-08-13 00:31:00,
2013-08-12 17:36:00,67.3,32.2,29.85,WNW,288,10.0,17.0,27,0.00,,,0.00,438,WeatherCatV1.21B27,2013-08-13 00:36:00,
2013-08-12 17:41:00,67.3,32.2,29.85,WSW,255,5.0,15.0,27,0.00,,,0.00,418,WeatherCatV1.21B27,2013-08-13 00:41:00,
2013-08-12 17:46:00,67.4,31.3,29.86,South,181,3.0,17.0,26,0.00,,,0.00,403,WeatherCatV1.21B27,2013-08-13 00:46:00,
2013-08-12 17:51:00,67.3,31.2,29.86,WSW,247,9.0,23.0,26,0.00,,,0.00,383,WeatherCatV1.21B27,2013-08-13 00:51:00,
2013-08-12 17:56:00,67.1,31.1,29.86,NW,305,12.0,18.0,26,0.00,,,0.00,367,WeatherCatV1.21B27,2013-08-13 00:56:00,
2013-08-12 18:01:00,66.9,31.8,29.86,West,272,18.0,18.0,27,0.00,,,0.00,350,WeatherCatV1.21B27,2013-08-13 01:01:00,
2013-08-12 18:06:00,66.9,31.8,29.86,WNW,297,12.0,17.0,27,0.00,,,0.00,338,WeatherCatV1.21B27,2013-08-13 01:06:00,
2013-08-12 18:11:00,66.8,31.7,29.86,NW,307,14.0,18.0,27,0.00,,,0.00,320,WeatherCatV1.21B27,2013-08-13 01:11:00,
2013-08-12 18:16:00,66.6,32.5,29.85,West,262,11.0,18.0,28,0.00,,,0.00,302,WeatherCatV1.21B27,2013-08-13 01:16:00,
2013-08-12 18:21:00,66.6,32.5,29.85,WNW,283,6.0,12.0,28,0.00,,,0.00,285,WeatherCatV1.21B27,2013-08-13 01:21:00,
2013-08-12 18:26:00,66.6,32.5,29.85,West,268,13.0,19.0,28,0.00,,,0.00,265,WeatherCatV1.21B27,2013-08-13 01:26:00,
2013-08-12 18:31:00,66.4,32.3,29.86,West,274,9.0,17.0,28,0.00,,,0.00,248,WeatherCatV1.21B27,2013-08-13 01:31:00,
2013-08-12 18:36:00,66.3,31.3,29.86,NW,307,5.0,19.0,27,0.00,,,0.00,232,WeatherCatV1.21B27,2013-08-13 01:36:00,
2013-08-12 18:41:00,66.0,32.0,29.86,WNW,293,11.0,16.0,28,0.00,,,0.00,216,WeatherCatV1.21B27,2013-08-13 01:41:00,
2013-08-12 18:46:00,65.8,31.8,29.86,WNW,297,6.0,23.0,28,0.00,,,0.00,200,WeatherCatV1.21B27,2013-08-13 01:46:00,
2013-08-12 18:51:00,65.8,32.7,29.86,WNW,297,13.0,14.0,29,0.00,,,0.00,183,WeatherCatV1.21B27,2013-08-13 01:51:00,
2013-08-12 18:56:00,65.3,32.2,29.86,West,261,12.0,16.0,29,0.00,,,0.00,167,WeatherCatV1.21B27,2013-08-13 01:56:00,
2013-08-12 19:01:00,65.2,32.1,29.86,WNW,293,13.0,17.0,29,0.00,,,0.00,149,WeatherCatV1.21B27,2013-08-13 02:01:00,
2013-08-12 19:06:00,65.0,32.8,29.86,WNW,288,12.0,16.0,30,0.00,,,0.00,134,WeatherCatV1.21B27,2013-08-13 02:06:00,
2013-08-12 19:11:00,64.7,32.5,29.86,WNW,283,6.0,11.0,30,0.00,,,0.00,118,WeatherCatV1.21B27,2013-08-13 02:11:00,
2013-08-12 19:16:00,64.3,33.0,29.86,SW,234,7.0,15.0,31,0.00,,,0.00,105,WeatherCatV1.21B27,2013-08-13 02:16:00,
2013-08-12 19:21:00,64.2,32.1,29.86,West,272,6.0,13.0,30,0.00,,,0.00,91,WeatherCatV1.21B27,2013-08-13 02:21:00,
2013-08-12 19:26:00,64.0,32.8,29.86,West,259,6.0,15.0,31,0.00,,,0.00,77,WeatherCatV1.21B27,2013-08-13 02:26:00,
2013-08-12 19:31:00,63.7,32.5,29.88,West,274,9.0,14.0,31,0.00,,,0.00,63,WeatherCatV1.21B27,2013-08-13 02:31:00,
2013-08-12 19:36:00,63.4,31.4,29.88,West,276,9.0,13.0,30,0.00,,,0.00,49,WeatherCatV1.21B27,2013-08-13 02:36:00,
2013-08-12 19:41:00,63.1,33.5,29.88,WNW,298,10.0,16.0,33,0.00,,,0.00,37,WeatherCatV1.21B27,2013-08-13 02:41:00,
2013-08-12 19:46:00,62.4,33.7,29.88,West,270,7.0,16.0,34,0.00,,,0.00,26,WeatherCatV1.21B27,2013-08-13 02:46:00,
2013-08-12 19:51:00,62.0,34.0,29.88,WSW,255,13.0,16.0,35,0.00,,,0.00,16,WeatherCatV1.21B27,2013-08-13 02:51:00,
2013-08-12 19:56:00,61.5,33.6,29.88,NW,322,9.0,17.0,35,0.00,,,0.00,5,WeatherCatV1.21B27,2013-08-13 02:56:00,
2013-08-12 20:01:00,61.0,33.9,29.89,WNW,283,10.0,10.0,36,0.00,,,0.00,0,WeatherCatV1.21B27,2013-08-13 03:01:00,
2013-08-12 20:06:00,60.5,34.1,29.89,WNW,301,10.0,13.0,37,0.00,,,0.00,0,WeatherCatV1.21B27,2013-08-13 03:06:00,
2013-08-12 20:11:00,60.2,34.5,29.89,WNW,297,10.0,11.0,38,0.00,,,0.00,0,WeatherCatV1.21B27,2013-08-13 03:11:00,
2013-08-12 20:16:00,59.9,34.2,29.88,WNW,288,9.0,13.0,38,0.00,,,0.00,0,WeatherCatV1.21B27,2013-08-13 03:16:00,
2013-08-12 20:21:00,59.6,34.6,29.88,WNW,283,14.0,14.0,39,0.00,,,0.00,0,WeatherCatV1.21B27,2013-08-13 03:21:00,
2013-08-12 20:26:00,59.3,35.0,29.88,West,272,10.0,16.0,40,0.00,,,0.00,0,WeatherCatV1.21B27,2013-08-13 03:26:00,
2013-08-12 20:31:00,59.0,34.7,29.90,WNW,283,9.0,19.0,40,0.00,,,0.00,0,WeatherCatV1.21B27,2013-08-13 03:31:00,
2013-08-12 20:36:00,58.7,35.1,29.90,NW,306,9.0,11.0,41,0.00,,,0.00,0,WeatherCatV1.21B27,2013-08-13 03:36:00,
2013-08-12 20:41:00,58.6,35.0,29.90,NW,318,11.0,15.0,41,0.00,,,0.00,0,WeatherCatV1.21B27,2013-08-13 03:41:00,
2013-08-12 20:46:00,58.4,34.8,29.91,NW,315,6.0,10.0,41,0.00,,,0.00,0,WeatherCatV1.21B27,2013-08-13 03:46:00,
2013-08-12 20:52:00,58.3,34.7,29.91,NW,312,12.0,14.0,41,0.00,,,0.00,0,WeatherCatV1.21B27,2013-08-13 03:52:00,
2013-08-12 20:57:00,58.1,35.1,29.91,NW,314,12.0,15.0,42,0.00,,,0.00,0,WeatherCatV1.21B27,2013-08-13 03:57:00,
2013-08-12 21:01:00,58.0,35.0,29.91,WNW,288,11.0,17.0,42,0.00,,,0.00,0,WeatherCatV1.21B27,2013-08-13 04:01:00,
2013-08-12 21:02:00,58.0,35.0,29.91,NW,307,12.0,14.0,42,0.00,,,0.00,0,WeatherCatV1.21B27,2013-08-13 04:02:00,
2013-08-12 21:04:00,58.0,35.0,29.91,WNW,288,12.0,17.0,42,0.00,,,0.00,0,WeatherCatV1.21B27,2013-08-13 04:04:00,
2013-08-12 21:05:00,58.0,35.0,29.91,WNW,283,14.0,17.0,42,0.00,,,0.00,0,WeatherCatV1.21B27,2013-08-13 04:05:00,
2013-08-12 21:06:00,58.0,36.8,29.91,WNW,299,13.0,19.0,45,0.00,,,0.00,0,WeatherCatV1.21B27,2013-08-13 04:06:00,
2013-08-12 21:11:00,58.0,35.0,29.91,NW,315,6.0,16.0,42,0.00,,,0.00,0,WeatherCatV1.21B27,2013-08-13 04:11:00,
2013-08-12 21:16:00,58.0,35.0,29.90,NNW,345,9.0,16.0,42,0.00,,,0.00,0,WeatherCatV1.21B27,2013-08-13 04:16:00,
2013-08-12 21:21:00,57.8,35.5,29.90,WNW,302,13.0,13.0,43,0.00,,,0.00,0,WeatherCatV1.21B27,2013-08-13 04:21:00,
2013-08-12 21:26:00,57.8,35.5,29.90,NW,313,14.0,14.0,43,0.00,,,0.00,0,WeatherCatV1.21B27,2013-08-13 04:26:00,
2013-08-12 21:31:00,57.8,35.5,29.90,NW,305,10.0,17.0,43,0.00,,,0.00,0,WeatherCatV1.21B27,2013-08-13 04:31:00,
2013-08-12 21:36:00,57.6,34.1,29.90,West,272,5.0,10.0,41,0.00,,,0.00,0,WeatherCatV1.21B27,2013-08-13 04:36:00,
2013-08-12 21:41:00,57.5,34.6,29.90,WNW,288,7.0,12.0,42,0.00,,,0.00,0,WeatherCatV1.21B27,2013-08-13 04:41:00,
2013-08-12 21:46:00,57.3,35.0,29.90,WNW,302,10.0,12.0,43,0.00,,,0.00,0,WeatherCatV1.21B27,2013-08-13 04:46:00,
2013-08-12 21:51:00,57.0,35.3,29.90,WNW,293,8.0,14.0,44,0.00,,,0.00,0,WeatherCatV1.21B27,2013-08-13 04:51:00,
2013-08-12 21:56:00,56.9,35.2,29.90,WNW,303,7.0,10.0,44,0.00,,,0.00,0,WeatherCatV1.21B27,2013-08-13 04:56:00,
2013-08-12 22:01:00,56.7,35.0,29.90,NW,307,9.0,13.0,44,0.00,,,0.00,0,WeatherCatV1.21B27,2013-08-13 05:01:00,
2013-08-12 22:06:00,56.6,34.9,29.90,WNW,302,2.0,7.0,44,0.00,,,0.00,0,WeatherCatV1.21B27,2013-08-13 05:06:00,
2013-08-12 22:11:00,56.5,34.8,29.90,NW,316,2.0,11.0,44,0.00,,,0.00,0,WeatherCatV1.21B27,2013-08-13 05:11:00,
2013-08-12 22:16:00,56.3,34.7,29.89,NNW,341,0.0,3.0,44,0.00,,,0.00,0,WeatherCatV1.21B27,2013-08-13 05:16:00,
2013-08-12 22:21:00,56.2,34.0,29.89,NW,312,4.0,10.0,43,0.00,,,0.00,0,WeatherCatV1.21B27,2013-08-13 05:21:00,
2013-08-12 22:26:00,56.2,33.4,29.89,North,351,2.0,6.0,42,0.00,,,0.00,0,WeatherCatV1.21B27,2013-08-13 05:26:00,
2013-08-12 22:31:00,56.0,33.2,29.89,NNW,332,0.0,3.0,42,0.00,,,0.00,0,WeatherCatV1.21B27,2013-08-13 05:31:00,
2013-08-12 22:36:00,55.9,33.7,29.89,NNW,332,0.0,3.0,43,0.00,,,0.00,0,WeatherCatV1.21B27,2013-08-13 05:36:00,
2013-08-12 22:41:00,55.9,33.7,29.89,NNW,342,0.0,3.0,43,0.00,,,0.00,0,WeatherCatV1.21B27,2013-08-13 05:41:00,
2013-08-12 22:46:00,55.7,33.5,29.89,NNW,342,0.0,3.0,43,0.00,,,0.00,0,WeatherCatV1.21B27,2013-08-13 05:46:00,
2013-08-12 22:51:00,55.6,33.5,29.89,NNW,342,2.0,2.0,43,0.00,,,0.00,0,WeatherCatV1.21B27,2013-08-13 05:51:00,
2013-08-12 22:56:00,55.6,30.4,29.89,North,355,0.0,5.0,38,0.00,,,0.00,0,WeatherCatV1.21B27,2013-08-13 05:56:00,
2013-08-12 23:01:00,55.6,32.9,29.89,North,353,0.0,0.0,42,0.00,,,0.00,0,WeatherCatV1.21B27,2013-08-13 06:01:00,
2013-08-12 23:06:00,55.3,32.0,29.89,North,352,2.0,3.0,41,0.00,,,0.00,0,WeatherCatV1.21B27,2013-08-13 06:06:00,
2013-08-12 23:11:00,55.1,31.8,29.89,North,351,0.0,6.0,41,0.00,,,0.00,0,WeatherCatV1.21B27,2013-08-13 06:11:00,
2013-08-12 23:16:00,55.1,31.2,29.89,North,350,2.0,6.0,40,0.00,,,0.00,0,WeatherCatV1.21B27,2013-08-13 06:16:00,
2013-08-12 23:21:00,55.0,30.5,29.89,North,350,0.0,2.0,39,0.00,,,0.00,0,WeatherCatV1.21B27,2013-08-13 06:21:00,
2013-08-12 23:26:00,55.0,31.1,29.89,North,349,0.0,5.0,40,0.00,,,0.00,0,WeatherCatV1.21B27,2013-08-13 06:26:00,
2013-08-12 23:31:00,55.0,29.9,29.90,North,350,4.0,4.0,38,0.00,,,0.00,0,WeatherCatV1.21B27,2013-08-13 06:31:00,
2013-08-12 23:36:00,55.1,29.3,29.90,North,349,0.0,1.0,37,0.00,,,0.00,0,WeatherCatV1.21B27,2013-08-13 06:36:00,
2013-08-12 23:41:00,55.0,29.2,29.90,North,349,0.0,0.0,37,0.00,,,0.00,0,WeatherCatV1.21B27,2013-08-13 06:41:00,
2013-08-12 23:46:00,55.0,29.2,29.90,North,349,2.0,3.0,37,0.00,,,0.00,0,WeatherCatV1.21B27,2013-08-13 06:46:00,
2013-08-12 23:51:00,55.1,28.6,29.90,North,351,3.0,4.0,36,0.00,,,0.00,0,WeatherCatV1.21B27,2013-08-13 06:51:00,
2013-08-12 23:56:00,55.6,27.7,29.90,North,352,3.0,5.0,34,0.00,,,0.00,0,WeatherCatV1.21B27,2013-08-13 06:56:00,